Time;durP1;ratioP1;P1;durP2;ratioP2;P2;SDS_P1;SDS_P2;PMS_P1;PMS_P2;Temp;Humidity;BMP_temperature;BMP_pressure;BME280_temperature;BME280_humidity;BME280_pressure;Samples;Min_cycle;Max_cycle;Signal;HPM_P1;HPM_P2
2022/08/02 00:02:08;;;;;;;1.77;1.00;;;;;;;22.32;58.82;100354.94;10467841;28;20087;-67
2022/08/02 00:07:10;;;;;;;1.45;1.02;;;;;;;22.32;58.96;100354.13;10464371;28;20800;-70
2022/08/02 00:12:11;;;;;;;1.40;1.17;;;;;;;22.32;58.89;100349.53;10465660;28;20725;-68
2022/08/02 00:17:13;;;;;;;1.23;1.08;;;;;;;22.30;58.94;100356.16;10476620;28;20047;-69
2022/08/02 00:22:14;;;;;;;1.67;1.25;;;;;;;22.24;59.15;100336.94;10470595;28;20468;-68
2022/08/02 00:27:16;;;;;;;3.20;1.45;;;;;;;22.18;59.12;100337.72;10464509;28;20072;-68
2022/08/02 00:32:17;;;;;;;0.82;0.82;;;;;;;22.13;59.39;100351.03;10453931;28;20150;-65
2022/08/02 00:37:19;;;;;;;1.10;1.00;;;;;;;22.07;59.47;100346.41;10446518;28;20675;-66
2022/08/02 00:42:20;;;;;;;1.13;0.77;;;;;;;22.11;59.69;100358.50;10462608;28;20414;-67
2022/08/02 00:47:21;;;;;;;0.95;0.80;;;;;;;22.02;59.69;100365.13;10469087;28;20071;-67
2022/08/02 00:52:23;;;;;;;0.90;0.90;;;;;;;21.97;59.85;100362.16;10465286;28;20147;-69
2022/08/02 00:57:24;;;;;;;1.20;0.95;;;;;;;21.94;59.61;100362.56;10470162;28;20129;-66
2022/08/02 01:02:26;;;;;;;1.48;0.98;;;;;;;21.91;60.17;100368.38;10481259;28;20076;-68
2022/08/02 01:07:27;;;;;;;1.83;1.08;;;;;;;21.87;59.91;100371.47;10480000;28;20079;-66
2022/08/02 01:12:29;;;;;;;1.45;1.17;;;;;;;21.76;60.17;100365.75;10448424;28;20139;-66
2022/08/02 01:17:49;;;;;;;1.13;0.90;;;;;;;21.77;60.21;100373.69;10464694;28;20127;-66
2022/08/02 01:22:51;;;;;;;1.45;0.80;;;;;;;21.70;60.44;100370.06;10463443;28;20076;-66
2022/08/02 01:28:25;;;;;;;1.08;0.98;;;;;;;21.65;60.62;100364.41;10456464;28;20052;-66
2022/08/02 01:33:34;;;;;;;1.63;1.10;;;;;;;21.68;60.13;100351.28;10463799;28;20612;-66
2022/08/02 01:38:43;;;;;;;1.33;0.95;;;;;;;21.67;60.48;100343.38;10466164;28;20044;-67
2022/08/02 01:43:46;;;;;;;1.02;0.90;;;;;;;21.65;60.33;100348.97;10462642;28;20048;-67
2022/08/02 01:48:49;;;;;;;1.02;0.93;;;;;;;21.63;60.57;100342.06;10463670;28;20079;-66
2022/08/02 01:53:50;;;;;;;1.40;1.10;;;;;;;21.57;60.57;100346.38;10461410;28;20265;-66
2022/08/02 01:58:53;;;;;;;1.30;1.13;;;;;;;21.64;60.95;100349.16;10465567;28;20370;-67
2022/08/02 02:03:55;;;;;;;1.65;0.95;;;;;;;21.63;61.00;100353.75;10468292;28;20046;-67
2022/08/02 02:08:59;;;;;;;2.45;1.10;;;;;;;21.65;60.85;100356.28;10465512;28;20052;-67
2022/08/02 02:14:01;;;;;;;1.10;1.00;;;;;;;21.65;60.81;100356.28;10461846;28;20124;-66
2022/08/02 02:19:05;;;;;;;0.88;0.80;;;;;;;21.57;60.38;100356.38;10460647;28;20139;-67
2022/08/02 02:24:07;;;;;;;1.73;1.20;;;;;;;21.43;61.29;100349.97;10460260;28;20134;-67
2022/08/02 02:29:13;;;;;;;2.08;1.25;;;;;;;21.44;60.92;100357.03;10457144;28;20048;-67
2022/08/02 02:34:22;;;;;;;1.30;1.20;;;;;;;21.35;61.20;100353.66;10463076;28;20812;-67
2022/08/02 02:39:27;;;;;;;1.05;0.95;;;;;;;21.29;61.30;100365.25;10460868;28;20048;-66
2022/08/02 02:44:30;;;;;;;1.08;0.90;;;;;;;21.23;61.63;100365.97;10464054;28;20345;-68
2022/08/02 02:49:34;;;;;;;1.75;1.20;;;;;;;21.12;61.88;100365.47;10459592;28;20126;-68
2022/08/02 02:54:37;;;;;;;1.33;1.10;;;;;;;21.14;62.16;100368.00;10461222;28;20131;-65
2022/08/02 02:59:39;;;;;;;1.20;1.10;;;;;;;21.16;61.97;100355.91;10466819;28;20127;-66
2022/08/02 03:04:51;;;;;;;1.88;1.10;;;;;;;21.00;62.58;100370.53;10467540;28;20250;-66
2022/08/02 03:09:58;;;;;;;1.30;1.20;;;;;;;21.16;62.27;100365.91;10468275;28;20102;-67
2022/08/02 03:15:03;;;;;;;1.20;1.10;;;;;;;21.17;62.26;100363.03;10468619;28;20749;-66
2022/08/02 03:20:08;;;;;;;1.98;1.60;;;;;;;21.19;62.70;100360.13;10461927;28;20044;-53
2022/08/02 03:25:11;;;;;;;2.10;1.40;;;;;;;21.19;62.90;100350.13;10449760;28;20123;-55
2022/08/02 03:30:13;;;;;;;1.85;1.35;;;;;;;21.19;61.86;100355.53;10463125;28;20064;-53
2022/08/02 03:35:17;;;;;;;1.25;1.15;;;;;;;21.16;62.14;100360.50;10463416;28;20135;-53
2022/08/02 03:40:26;;;;;;;1.92;1.40;;;;;;;21.18;62.60;100362.00;10457831;28;20226;-52
2022/08/02 03:45:29;;;;;;;1.25;1.00;;;;;;;21.19;62.05;100358.25;10459948;28;20044;-52
2022/08/02 03:50:32;;;;;;;1.47;1.37;;;;;;;21.13;62.25;100345.47;10463248;28;20078;-52
2022/08/02 03:55:35;;;;;;;1.15;0.77;;;;;;;21.23;62.74;100355.16;10462996;28;20315;-53
2022/08/02 04:00:36;;;;;;;3.03;1.00;;;;;;;21.12;62.42;100343.81;10460130;28;20539;-53
2022/08/02 04:05:38;;;;;;;1.50;1.20;;;;;;;21.27;62.43;100348.34;10456112;28;20447;-53
2022/08/02 04:16:23;;;;;;;1.73;1.23;;;;;;;21.24;62.62;100346.84;10464593;28;20715;-54
2022/08/02 04:21:27;;;;;;;1.30;1.20;;;;;;;21.17;62.78;100357.59;10458614;28;20135;-53
2022/08/02 04:26:49;;;;;;;2.67;2.20;;;;;;;20.96;63.11;100352.16;10464617;28;20050;-53
2022/08/02 04:31:52;;;;;;;1.23;1.02;;;;;;;20.90;63.75;100344.81;10453423;28;20230;-53
2022/08/02 04:36:54;;;;;;;2.78;1.20;;;;;;;20.98;63.55;100361.75;10458792;28;20515;-53
2022/08/02 04:41:56;;;;;;;11.23;1.83;;;;;;;20.89;63.61;100371.00;10459652;28;20123;-53
2022/08/02 04:47:01;;;;;;;1.60;1.50;;;;;;;20.86;63.91;100381.38;10462495;28;20447;-52
2022/08/02 04:52:07;;;;;;;1.33;1.23;;;;;;;20.88;63.78;100382.00;10456952;28;20052;-53
2022/08/02 05:02:35;;;;;;;2.72;2.03;;;;;;;21.06;63.53;100404.09;10378274;28;20056;-67
2022/08/02 05:07:55;;;;;;;2.38;1.38;;;;;;;21.14;63.27;100409.41;10295944;28;21174;-66
2022/08/02 05:12:56;;;;;;;1.63;1.50;;;;;;;21.23;63.23;100410.16;10435016;28;20194;-66
2022/08/02 05:17:59;;;;;;;1.83;1.23;;;;;;;21.19;63.16;100393.44;10461071;28;20055;-67
2022/08/02 05:23:02;;;;;;;3.17;1.40;;;;;;;21.07;63.51;100396.81;10436224;22;20048;-73
2022/08/02 05:28:03;;;;;;;2.20;1.27;;;;;;;21.09;63.51;100406.44;10453108;28;20439;-70
2022/08/02 05:33:11;;;;;;;4.30;1.90;;;;;;;21.16;63.44;100399.22;10460261;28;20048;-74
2022/08/02 05:38:13;;;;;;;3.72;2.08;;;;;;;21.13;64.20;100398.78;10442165;28;20044;-73
2022/08/02 05:43:15;;;;;;;2.13;1.90;;;;;;;21.15;63.30;100415.66;10466235;28;20056;-72
2022/08/02 05:48:16;;;;;;;2.40;2.05;;;;;;;21.18;64.06;100416.13;10465272;28;20089;-71
2022/08/02 05:53:34;;;;;;;1.77;1.20;;;;;;;21.24;63.65;100410.97;10459159;28;20058;-71
2022/08/02 05:58:46;;;;;;;1.65;1.55;;;;;;;21.39;63.14;100414.47;10454712;28;20184;-72
2022/08/02 06:03:51;;;;;;;1.42;1.17;;;;;;;21.43;63.43;100420.38;10464990;28;20123;-72
2022/08/02 06:09:02;;;;;;;2.35;1.60;;;;;;;21.63;63.20;100423.31;10460561;28;20617;-71
2022/08/02 06:14:05;;;;;;;1.60;1.35;;;;;;;21.91;61.45;100428.00;10458922;28;20079;-73
2022/08/02 06:19:07;;;;;;;1.40;1.20;;;;;;;22.11;61.21;100429.00;10452578;28;20066;-74
2022/08/02 06:24:09;;;;;;;2.58;1.55;;;;;;;22.24;60.70;100429.09;10434807;28;20894;-72
2022/08/02 06:29:11;;;;;;;1.75;1.38;;;;;;;22.38;60.70;100421.97;10452838;28;20388;-75
2022/08/02 06:34:13;;;;;;;2.85;1.20;;;;;;;22.54;60.13;100417.28;10450066;28;20132;-72
2022/08/02 06:39:30;;;;;;;1.90;1.30;;;;;;;22.62;60.00;100435.28;10454011;28;20056;-74
2022/08/02 06:44:31;;;;;;;2.47;0.95;;;;;;;22.72;59.34;100424.91;10466689;28;20478;-72
2022/08/02 06:49:54;;;;;;;1.42;1.15;;;;;;;22.87;58.82;100422.06;10467356;28;20067;-73
2022/08/02 06:55:02;;;;;;;2.85;1.30;;;;;;;22.89;59.52;100426.22;10469425;28;20048;-74
2022/08/02 07:00:07;;;;;;;1.48;0.75;;;;;;;23.05;58.42;100430.50;10446198;28;20055;-74
2022/08/02 07:05:09;;;;;;;1.50;0.90;;;;;;;23.27;57.67;100423.13;10448161;28;20061;-74
2022/08/02 07:10:12;;;;;;;2.58;1.40;;;;;;;23.41;57.60;100418.56;10464572;28;20131;-72
2022/08/02 07:15:15;;;;;;;1.63;1.30;;;;;;;23.43;57.33;100421.06;10451410;28;20054;-72
2022/08/02 07:20:16;;;;;;;1.48;1.20;;;;;;;23.73;56.76;100418.03;10461987;28;20044;-72
2022/08/02 07:25:18;;;;;;;5.05;1.45;;;;;;;23.84;56.08;100417.44;10467630;28;20060;-72
2022/08/02 07:30:19;;;;;;;3.58;1.50;;;;;;;23.86;55.35;100414.53;10450893;28;20051;-72
2022/08/02 07:35:21;;;;;;;2.28;1.17;;;;;;;23.59;56.25;100407.13;10469080;28;20208;-71
2022/08/02 07:40:23;;;;;;;1.42;1.30;;;;;;;23.57;56.53;100400.22;10467723;28;20057;-73
2022/08/02 07:45:26;;;;;;;1.52;0.98;;;;;;;23.79;55.70;100411.75;10462095;28;20149;-74
2022/08/02 07:50:27;;;;;;;1.60;1.10;;;;;;;24.00;54.46;100398.03;10441062;28;20597;-76
2022/08/02 07:55:28;;;;;;;2.20;1.50;;;;;;;24.17;53.18;100400.34;10463822;28;20140;-72
2022/08/02 08:00:42;;;;;;;1.83;1.27;;;;;;;24.39;51.86;100413.69;10449814;28;20044;-74
2022/08/02 08:05:43;;;;;;;1.48;1.00;;;;;;;24.58;51.87;100396.53;10466831;28;20669;-73
2022/08/02 08:10:45;;;;;;;1.65;0.77;;;;;;;24.94;49.53;100405.25;10468173;28;20051;-74
2022/08/02 08:15:47;;;;;;;2.27;1.70;;;;;;;25.24;48.47;100391.91;10461910;28;20056;-71
2022/08/02 08:20:52;;;;;;;2.30;1.40;;;;;;;25.45;46.70;100384.50;10443951;28;20309;-73
2022/08/02 08:25:54;;;;;;;20.27;4.17;;;;;;;25.42;47.29;100396.69;10456967;28;20135;-72
2022/08/02 08:30:56;;;;;;;2.20;0.75;;;;;;;25.69;46.17;100386.44;10444872;28;20055;-71
2022/08/02 08:35:57;;;;;;;1.48;0.88;;;;;;;25.91;44.19;100391.50;10460264;28;20063;-72
2022/08/02 08:41:03;;;;;;;0.73;0.60;;;;;;;26.14;45.01;100392.81;10456766;28;20053;-73
2022/08/02 08:46:05;;;;;;;1.05;0.85;;;;;;;25.98;43.73;100400.47;10463481;28;20736;-73
2022/08/02 08:51:12;;;;;;;2.78;0.93;;;;;;;26.24;43.64;100394.03;10462616;28;20054;-71
2022/08/02 08:56:15;;;;;;;0.93;0.65;;;;;;;26.48;41.99;100393.38;10460218;28;20044;-72
2022/08/02 09:01:17;;;;;;;1.10;0.60;;;;;;;26.93;41.31;100388.50;10457004;28;20519;-74
2022/08/02 09:06:19;;;;;;;7.47;1.15;;;;;;;26.83;40.87;100384.63;10447015;28;20117;-71
2022/08/02 09:11:25;;;;;;;1.17;0.63;;;;;;;27.16;39.47;100385.03;10464098;28;20048;-73
2022/08/02 09:16:38;;;;;;;0.85;0.50;;;;;;;27.67;38.00;100373.88;10463417;28;20722;-72
2022/08/02 09:21:39;;;;;;;0.93;0.43;;;;;;;28.02;37.65;100367.66;10464303;28;20064;-74
2022/08/02 09:26:41;;;;;;;2.58;0.60;;;;;;;28.52;35.97;100369.88;10460938;28;20070;-73
2022/08/02 09:31:43;;;;;;;0.98;0.50;;;;;;;28.27;36.40;100378.38;10468755;28;20432;-71
2022/08/02 09:36:50;;;;;;;1.73;0.52;;;;;;;28.97;34.20;100373.06;10461459;28;20064;-75
2022/08/02 09:42:09;;;;;;;2.45;0.47;;;;;;;29.55;34.05;100376.69;10451457;28;20048;-76
2022/08/02 09:47:15;;;;;;;1.70;0.40;;;;;;;29.92;32.98;100366.09;10419373;28;20048;-74
2022/08/02 09:52:22;;;;;;;0.63;0.50;;;;;;;30.44;32.68;100373.22;10445948;28;20172;-75
2022/08/02 09:57:37;;;;;;;3.47;0.63;;;;;;;30.45;32.79;100357.59;10449037;28;20047;-77
2022/08/02 10:02:39;;;;;;;1.00;0.50;;;;;;;30.10;32.45;100364.16;10450533;28;20063;-74
2022/08/02 10:07:40;;;;;;;4.10;0.75;;;;;;;30.41;32.30;100356.41;10461786;28;20337;-74
2022/08/02 10:12:42;;;;;;;0.77;0.65;;;;;;;30.52;30.38;100357.38;10456969;28;20093;-73
2022/08/02 10:17:44;;;;;;;1.38;0.80;;;;;;;30.27;32.00;100354.00;10456174;28;20245;-74
2022/08/02 10:22:46;;;;;;;2.92;1.20;;;;;;;30.92;29.60;100348.84;10464334;28;20426;-75
2022/08/02 10:27:48;;;;;;;;;;;;;;;31.67;28.95;100329.03;10476338;28;20130;-76
2022/08/02 10:33:07;;;;;;;2.88;0.80;;;;;;;31.75;29.24;100324.97;10472924;28;20017;-71
2022/08/02 10:38:11;;;;;;;2.97;0.50;;;;;;;32.08;28.39;100319.16;10443846;28;20048;-76
2022/08/02 10:43:35;;;;;;;4.20;0.70;;;;;;;32.91;27.47;100327.88;10464770;28;20054;-78
2022/08/02 10:49:13;;;;;;;1.45;0.70;;;;;;;33.18;26.05;100318.53;10476019;28;20056;-77
2022/08/02 10:54:40;;;;;;;0.50;0.43;;;;;;;33.16;25.92;100315.25;10474558;28;20524;-75
2022/08/02 10:59:46;;;;;;;1.63;0.52;;;;;;;33.02;26.63;100299.22;10512177;28;20065;-77
2022/08/02 11:04:54;;;;;;;0.85;0.30;;;;;;;33.57;25.15;100309.78;10445506;28;20056;-78
2022/08/02 11:09:58;;;;;;;0.50;0.40;;;;;;;33.09;25.75;100297.03;10452523;28;20438;-76
2022/08/02 11:15:05;;;;;;;0.68;0.40;;;;;;;33.76;25.97;100299.88;10451656;28;20048;-78
2022/08/02 11:20:11;;;;;;;1.35;0.50;;;;;;;33.82;23.67;100289.66;10457186;28;20470;-76
2022/08/02 11:25:33;;;;;;;0.90;0.57;;;;;;;34.06;24.12;100289.06;10444232;28;20053;-77
2022/08/02 11:30:59;;;;;;;1.10;0.60;;;;;;;33.48;25.84;100290.22;10456549;28;20062;-77
2022/08/02 11:36:04;;;;;;;1.70;0.50;;;;;;;33.60;24.79;100270.59;10442791;28;20155;-76
2022/08/02 11:41:06;;;;;;;1.10;0.47;;;;;;;33.02;24.41;100276.34;10459171;28;20048;-76
2022/08/02 11:46:13;;;;;;;1.35;0.60;;;;;;;33.35;25.26;100275.03;10459296;28;20052;-75
2022/08/02 11:51:16;;;;;;;1.33;0.47;;;;;;;33.31;24.23;100282.19;10456903;28;20185;-76
2022/08/02 11:56:26;;;;;;;1.60;0.45;;;;;;;33.28;24.21;100266.19;10454886;28;20270;-75
2022/08/02 12:01:29;;;;;;;0.73;0.32;;;;;;;33.79;23.10;100268.13;10457454;28;20074;-77
2022/08/02 12:06:33;;;;;;;2.53;0.70;;;;;;;33.93;23.88;100268.38;10428282;28;20392;-76
2022/08/02 12:11:36;;;;;;;1.75;0.50;;;;;;;33.89;22.93;100261.78;10454784;28;20056;-73
2022/08/02 12:22:08;;;;;;;1.33;0.40;;;;;;;33.88;24.39;100265.66;10461105;28;20264;-76
2022/08/02 12:27:27;;;;;;;1.17;0.45;;;;;;;34.24;23.16;100257.25;10456403;28;20050;-74
2022/08/02 12:32:29;;;;;;;1.02;0.43;;;;;;;34.32;23.00;100253.94;10456455;28;20048;-73
2022/08/02 12:37:30;;;;;;;2.05;0.65;;;;;;;34.15;23.67;100265.28;10455820;28;20041;-75
2022/08/02 12:42:45;;;;;;;2.35;0.60;;;;;;;33.96;22.66;100265.06;10458531;28;20044;-73
2022/08/02 12:47:50;;;;;;;1.95;0.60;;;;;;;33.78;23.90;100259.03;10453437;28;20060;-76
2022/08/02 12:53:12;;;;;;;0.70;0.40;;;;;;;33.74;23.90;100254.38;10455723;28;20056;-76
2022/08/02 12:58:14;;;;;;;0.98;0.50;;;;;;;33.89;24.02;100246.03;10440252;28;20051;-76
2022/08/02 13:03:19;;;;;;;1.05;0.60;;;;;;;33.43;23.11;100233.09;10459524;28;20180;-76
2022/08/02 13:08:40;;;;;;;2.05;0.70;;;;;;;33.16;24.32;100227.81;10443728;28;20110;-77
2022/08/02 13:13:42;;;;;;;0.90;0.60;;;;;;;33.39;24.22;100222.88;10458439;28;20634;-76
2022/08/02 13:18:45;;;;;;;3.17;0.82;;;;;;;32.95;24.16;100227.84;10457980;28;20431;-77
2022/08/02 13:23:46;;;;;;;2.00;0.73;;;;;;;32.76;23.97;100229.44;10456580;28;21123;-75
2022/08/02 13:28:54;;;;;;;1.75;0.43;;;;;;;32.48;23.73;100234.28;10455201;28;20102;-78
2022/08/02 13:33:56;;;;;;;;;;;;;;;32.60;23.88;100218.34;10453883;28;20242;-77
2022/08/02 13:38:57;;;;;;;1.33;0.57;;;;;;;32.53;24.20;100225.22;10454075;28;19923;-75
2022/08/02 13:43:58;;;;;;;1.25;0.55;;;;;;;32.37;24.29;100211.41;10455898;28;20068;-75
2022/08/02 13:49:10;;;;;;;2.25;0.60;;;;;;;32.25;23.68;100197.03;10446778;28;20067;-76
2022/08/02 13:54:18;;;;;;;1.75;0.40;;;;;;;32.39;24.52;100192.66;10461243;28;20059;-73
2022/08/02 13:59:19;;;;;;;1.45;0.63;;;;;;;32.33;24.18;100177.22;10465660;28;20506;-75
2022/08/02 14:04:40;;;;;;;2.42;0.60;;;;;;;32.21;25.02;100173.88;10469467;28;20063;-75
2022/08/02 14:09:42;;;;;;;2.40;0.60;;;;;;;32.01;25.29;100169.91;10468226;28;20056;-76
2022/08/02 14:14:43;;;;;;;1.38;0.80;;;;;;;32.27;25.15;100172.81;10456693;28;20051;-75
2022/08/02 14:19:45;;;;;;;1.60;0.90;;;;;;;32.13;25.25;100166.97;10443356;28;20442;-73
2022/08/02 14:24:46;;;;;;;;;;;;;;;32.06;24.72;100161.66;10453504;28;20060;-74
2022/08/02 14:29:50;;;;;;;2.97;0.87;;;;;;;31.79;24.67;100153.56;10454075;28;20208;-75
2022/08/02 14:34:51;;;;;;;2.08;0.60;;;;;;;31.46;23.97;100146.47;10450785;28;20934;-75
2022/08/02 14:39:52;;;;;;;1.23;0.52;;;;;;;31.42;24.88;100156.34;10450917;28;20114;-75
2022/08/02 14:45:01;;;;;;;1.67;0.70;;;;;;;31.41;25.97;100144.53;10451927;28;21715;-75
2022/08/02 14:50:03;;;;;;;1.45;1.35;;;;;;;31.23;25.97;100143.03;10450865;28;20524;-74
2022/08/02 14:55:05;;;;;;;1.33;0.63;;;;;;;31.12;26.27;100141.28;10457830;28;20583;-74
2022/08/02 15:00:07;;;;;;;;;;;;;;;31.18;25.41;100140.22;10459208;28;20052;-75
2022/08/02 15:05:08;;;;;;;1.50;0.70;;;;;;;31.26;25.41;100148.00;10457498;28;20006;-74
2022/08/02 15:10:10;;;;;;;0.93;0.63;;;;;;;31.29;25.52;100136.47;10444608;28;20052;-76
2022/08/02 15:15:11;;;;;;;1.67;0.73;;;;;;;31.33;25.98;100126.59;10459363;28;20545;-73
2022/08/02 15:20:12;;;;;;;1.35;0.77;;;;;;;31.34;26.57;100124.69;10456592;28;20063;-75
2022/08/02 15:25:26;;;;;;;1.27;0.88;;;;;;;31.31;25.98;100123.28;10459832;28;20524;-73
2022/08/02 15:30:27;;;;;;;0.90;0.57;;;;;;;31.21;26.33;100128.69;10441546;28;20170;-74
2022/08/02 15:35:29;;;;;;;3.08;1.02;;;;;;;31.18;26.50;100126.47;10443773;28;20058;-74
2022/08/02 15:40:30;;;;;;;0.98;0.70;;;;;;;30.81;26.06;100124.53;10457788;28;20056;-75
2022/08/02 15:45:33;;;;;;;1.27;0.80;;;;;;;30.82;26.66;100126.16;10457470;28;22315;-73
2022/08/02 15:50:35;;;;;;;1.88;0.57;;;;;;;30.94;26.80;100124.09;10455056;28;20048;-74
2022/08/02 15:55:37;;;;;;;1.95;0.75;;;;;;;30.93;27.67;100116.94;10455361;28;20242;-74
2022/08/02 16:00:59;;;;;;;1.23;0.80;;;;;;;30.91;27.20;100118.28;10459381;28;20615;-76
2022/08/02 16:06:00;;;;;;;1.23;0.70;;;;;;;30.86;26.78;100105.31;10453227;28;20044;-75
2022/08/02 16:11:02;;;;;;;1.27;0.60;;;;;;;30.77;27.04;100120.63;10453091;28;21209;-75
2022/08/02 16:16:03;;;;;;;1.55;0.70;;;;;;;30.65;26.96;100105.13;10456752;28;20045;-74
2022/08/02 16:21:05;;;;;;;1.48;1.02;;;;;;;30.59;26.74;100095.19;10460312;28;20048;-74
2022/08/02 16:26:06;;;;;;;1.15;0.90;;;;;;;30.64;27.33;100091.66;10456080;28;20131;-73
2022/08/02 16:31:08;;;;;;;1.85;0.60;;;;;;;30.56;27.02;100087.47;10457585;28;20139;-73
2022/08/02 16:36:13;;;;;;;0.98;0.60;;;;;;;30.49;27.18;100097.84;10442683;28;20056;-74
2022/08/02 16:41:14;;;;;;;0.80;0.77;;;;;;;30.45;27.31;100088.50;10458107;28;20166;-73
2022/08/02 16:46:16;;;;;;;1.35;0.50;;;;;;;30.35;27.61;100088.34;10459585;28;20059;-74
2022/08/02 16:51:19;;;;;;;2.97;0.98;;;;;;;30.25;27.53;100089.91;10439680;28;20187;-73
2022/08/02 16:56:21;;;;;;;1.83;0.73;;;;;;;30.09;27.48;100080.66;10457073;28;20064;-73
2022/08/02 17:01:23;;;;;;;1.55;1.10;;;;;;;29.94;28.16;100083.25;10457555;28;20056;-73
2022/08/02 17:06:28;;;;;;;2.33;1.33;;;;;;;29.85;27.74;100090.28;10456359;28;20052;-73
2022/08/02 17:11:29;;;;;;;4.00;0.90;;;;;;;29.73;27.96;100079.41;10440792;28;20221;-72
2022/08/02 17:16:31;;;;;;;0.70;0.70;;;;;;;29.60;28.64;100075.91;10455099;28;20052;-75
2022/08/02 17:21:32;;;;;;;2.90;0.80;;;;;;;29.66;28.58;100092.47;10458252;28;20445;-74
2022/08/02 17:26:36;;;;;;;1.53;1.23;;;;;;;29.60;28.36;100084.16;10460618;28;20821;-74
2022/08/02 17:31:37;;;;;;;1.30;0.55;;;;;;;29.54;28.49;100090.66;10460278;28;20044;-73
2022/08/02 17:36:46;;;;;;;1.73;0.90;;;;;;;29.46;28.81;100082.88;10463195;28;20044;-75
2022/08/02 17:41:50;;;;;;;1.80;0.93;;;;;;;29.39;29.16;100084.97;10471805;28;20059;-75
2022/08/02 17:46:51;;;;;;;2.53;0.97;;;;;;;29.20;28.97;100085.22;10473059;28;20082;-77
2022/08/02 17:51:52;;;;;;;1.07;0.90;;;;;;;29.17;28.94;100091.22;10465711;28;20054;-75
2022/08/02 17:57:14;;;;;;;1.27;1.13;;;;;;;29.01;28.92;100086.56;10473327;28;20052;-76
2022/08/02 18:02:16;;;;;;;1.70;0.65;;;;;;;28.82;29.06;100092.28;10462463;28;21698;-74
2022/08/02 18:07:18;;;;;;;1.48;0.85;;;;;;;28.73;29.06;100091.03;10451754;28;20871;-74
2022/08/02 18:12:25;;;;;;;2.03;0.80;;;;;;;28.62;29.65;100086.47;10453034;28;20060;-73
2022/08/02 18:17:27;;;;;;;;;;;;;;;28.51;30.22;100094.47;10458449;28;20044;-75
2022/08/02 18:22:29;;;;;;;2.75;1.27;;;;;;;28.38;30.13;100089.31;10454592;28;19920;-75
2022/08/02 18:27:31;;;;;;;1.35;1.00;;;;;;;28.29;30.10;100082.56;10450539;28;20052;-73
2022/08/02 18:32:32;;;;;;;1.98;1.20;;;;;;;28.27;30.27;100090.19;10432182;28;20667;-74
2022/08/02 18:37:53;;;;;;;1.20;0.80;;;;;;;28.20;30.48;100084.88;10458730;28;20485;-73
2022/08/02 18:43:01;;;;;;;1.85;0.77;;;;;;;28.11;30.68;100095.38;10454111;28;20120;-72
2022/08/02 18:48:04;;;;;;;1.85;1.52;;;;;;;28.06;30.38;100086.22;10477515;28;20522;-75
2022/08/02 18:53:08;;;;;;;0.95;0.82;;;;;;;27.94;31.24;100095.28;10455046;28;20248;-74
2022/08/02 18:58:15;;;;;;;3.55;1.02;;;;;;;27.87;31.25;100094.56;10449793;28;20056;-75
2022/08/02 19:03:21;;;;;;;1.40;1.08;;;;;;;27.80;31.11;100094.72;10446497;28;20064;-77
2022/08/02 19:08:22;;;;;;;2.40;0.90;;;;;;;27.76;31.44;100092.69;10484496;28;20067;-74
2022/08/02 19:13:26;;;;;;;2.95;1.35;;;;;;;27.67;31.73;100090.34;10449686;28;20461;-75
2022/08/02 19:18:30;;;;;;;2.53;1.27;;;;;;;27.61;32.02;100090.47;10430654;28;20056;-72
2022/08/02 19:23:32;;;;;;;3.35;1.20;;;;;;;27.50;32.42;100081.22;10452610;28;20048;-72
2022/08/02 19:28:34;;;;;;;3.25;1.40;;;;;;;27.46;32.20;100089.06;10438429;28;20118;-74
2022/08/02 19:33:36;;;;;;;3.55;1.48;;;;;;;27.35;32.66;100098.09;10456832;28;20045;-75
2022/08/02 19:38:58;;;;;;;2.65;1.35;;;;;;;27.32;33.15;100098.53;10453119;28;20056;-74
2022/08/02 19:44:03;;;;;;;3.07;1.37;;;;;;;27.27;33.21;100104.72;10454370;28;20050;-77
2022/08/02 19:49:26;;;;;;;2.80;1.30;;;;;;;27.19;33.54;100104.25;10464920;28;20055;-72
2022/08/02 19:54:41;;;;;;;1.50;1.17;;;;;;;27.08;33.57;100090.38;10448154;28;20048;-74
2022/08/02 19:59:56;;;;;;;2.95;1.67;;;;;;;27.06;33.74;100095.22;10462883;28;20074;-72
2022/08/02 20:04:58;;;;;;;3.20;1.57;;;;;;;26.98;33.94;100093.66;10462050;28;20055;-74
2022/08/02 20:10:00;;;;;;;2.65;1.92;;;;;;;26.86;34.84;100094.72;10464246;28;20051;-73
2022/08/02 20:15:03;;;;;;;4.70;2.83;;;;;;;26.80;34.47;100105.50;10467834;28;20108;-74
2022/08/02 20:20:16;;;;;;;4.90;2.28;;;;;;;26.69;35.16;100102.75;10470700;28;20049;-73
2022/08/02 20:25:17;;;;;;;4.57;2.50;;;;;;;26.59;35.00;100097.84;10476305;28;20363;-75
2022/08/02 20:30:19;;;;;;;4.37;2.90;;;;;;;26.55;35.57;100096.66;10485439;28;20120;-75
2022/08/02 20:35:25;;;;;;;2.97;2.47;;;;;;;26.43;36.44;100085.69;10475215;28;20759;-74
2022/08/02 20:40:27;;;;;;;5.57;3.97;;;;;;;26.43;36.93;100097.44;10467101;28;20067;-73
2022/08/02 20:45:29;;;;;;;3.72;3.22;;;;;;;26.37;37.00;100098.34;10463215;28;20063;-74
2022/08/02 20:50:51;;;;;;;6.18;3.47;;;;;;;26.18;39.65;100094.88;10458620;28;20154;-76
2022/08/02 20:55:54;;;;;;;3.90;2.95;;;;;;;26.09;39.18;100110.72;10463506;28;20050;-74
2022/08/02 21:00:58;;;;;;;4.90;3.00;;;;;;;25.94;39.38;100102.03;10458693;28;20048;-72
2022/08/02 21:06:00;;;;;;;4.30;3.00;;;;;;;25.87;38.91;100109.50;10473122;28;20060;-75
2022/08/02 21:11:03;;;;;;;3.80;3.50;;;;;;;25.82;38.70;100117.50;10447688;28;20066;-73
2022/08/02 21:16:13;;;;;;;7.53;3.55;;;;;;;25.71;38.84;100116.38;10455132;28;20044;-75
2022/08/02 21:21:21;;;;;;;6.15;4.05;;;;;;;25.68;38.89;100122.28;10447641;28;20202;-71
2022/08/02 21:26:23;;;;;;;4.00;3.25;;;;;;;25.64;38.95;100121.06;10459357;28;20052;-74
2022/08/02 21:31:32;;;;;;;4.72;3.33;;;;;;;25.61;38.55;100116.06;10451387;28;20055;-76
2022/08/02 21:36:36;;;;;;;3.03;2.63;;;;;;;25.59;39.25;100119.00;10464854;28;20673;-73
2022/08/02 21:41:40;;;;;;;4.95;2.67;;;;;;;25.65;38.12;100118.09;10473130;28;20044;-74
2022/08/02 21:46:54;;;;;;;3.75;2.58;;;;;;;25.64;38.40;100126.50;10471218;28;20997;-73
2022/08/02 21:51:56;;;;;;;2.80;2.10;;;;;;;25.55;38.34;100117.78;10469192;28;20874;-74
2022/08/02 21:56:57;;;;;;;3.53;2.00;;;;;;;25.45;38.00;100128.41;10468164;28;20055;-76
2022/08/02 22:01:59;;;;;;;2.30;2.10;;;;;;;25.41;37.52;100133.44;10463876;28;20060;-73
2022/08/02 22:07:00;;;;;;;2.72;2.15;;;;;;;25.33;38.62;100131.03;10471411;28;20039;-76
2022/08/02 22:12:03;;;;;;;4.30;2.03;;;;;;;25.28;38.54;100136.25;10470458;28;20054;-73
2022/08/02 22:17:09;;;;;;;3.15;1.95;;;;;;;25.22;39.10;100135.25;10457875;28;20052;-73
2022/08/02 22:22:14;;;;;;;2.03;1.65;;;;;;;25.19;39.04;100141.16;10473099;28;20303;-75
2022/08/02 22:27:15;;;;;;;2.92;2.30;;;;;;;25.14;38.78;100146.44;10468304;28;20202;-75
2022/08/02 22:37:41;;;;;;;3.80;1.90;;;;;;;24.98;37.46;100145.09;10461437;28;20082;-74
2022/08/02 22:43:03;;;;;;;5.57;2.42;;;;;;;24.80;38.54;100154.88;10461013;28;20052;-73
2022/08/02 22:48:05;;;;;;;3.83;2.28;;;;;;;24.82;38.68;100146.47;10471589;28;20585;-75
2022/08/02 22:53:06;;;;;;;5.10;1.97;;;;;;;24.72;38.15;100146.94;10465085;28;20585;-75
2022/08/02 22:58:08;;;;;;;2.25;1.70;;;;;;;24.72;38.90;100157.00;10470147;28;20045;-72
2022/08/02 23:03:09;;;;;;;2.92;2.17;;;;;;;24.59;38.97;100153.31;10458731;28;20131;-73
2022/08/02 23:08:11;;;;;;;2.00;1.80;;;;;;;24.56;39.64;100152.88;10466316;28;20758;-72
2022/08/02 23:13:12;;;;;;;2.58;2.20;;;;;;;24.49;39.89;100148.31;10468541;28;20052;-74
2022/08/02 23:23:33;;;;;;;2.78;1.80;;;;;;;24.41;40.70;100145.00;10474375;28;20048;-74
2022/08/02 23:28:35;;;;;;;2.13;1.80;;;;;;;24.40;40.65;100149.63;10480647;28;20060;-76
2022/08/02 23:33:36;;;;;;;2.72;1.80;;;;;;;24.29;40.72;100143.00;10469980;28;20073;-73
2022/08/02 23:38:58;;;;;;;3.70;2.10;;;;;;;24.18;41.42;100152.66;10467805;28;20056;-73
2022/08/02 23:44:00;;;;;;;2.53;1.75;;;;;;;24.11;41.21;100153.72;10465424;28;20629;-74
2022/08/02 23:49:15;;;;;;;2.55;1.92;;;;;;;24.10;41.86;100154.78;10474897;28;20098;-73
2022/08/02 23:54:17;;;;;;;2.50;2.03;;;;;;;24.08;41.99;100165.03;10474078;28;20579;-74